IAH weather

George Bush Intercontinental Houston Airport
Houston, Texas, United States

Public forecast

Using degrees Fahrenheit for public forecast. Weather courtesy of forecast.io.

Current aviation weather report (METAR) for George Bush Intercontinental Houston Airport

Retrieved 2020/01/24 18:53 UTC (40 minutes ago):

KIAH 241853Z 30005KT 10SM FEW250 18/02 A3016 RMK AO2 SLP214 T01780022

Aviation forecast (TAF) for George Bush Intercontinental Houston Airport

Retrieved 2020/01/24 18:24 UTC (1 hour ago):

TAF KIAH 241721Z 2418/2524 31006KT P6SM SKC FM250100 VRB02KT P6SM SKC FM251500 15009KT P6SM SCT250 FM252100 15011KT P6SM SCT070